createdAt,value
2023-04-18T00:00:56.289Z,20.20
2023-04-18T00:03:51.161Z,20.30
2023-04-18T00:06:44.469Z,20.30
2023-04-18T00:09:37.772Z,20.30
2023-04-18T00:12:31.895Z,20.30
2023-04-18T00:15:24.892Z,20.20
2023-04-18T00:18:19.457Z,20.30
2023-04-18T00:21:13.334Z,20.30
2023-04-18T00:24:07.671Z,20.30
2023-04-18T00:27:01.526Z,20.30
2023-04-18T00:29:54.886Z,20.30
2023-04-18T00:32:47.971Z,20.30
2023-04-18T00:35:42.322Z,20.30
2023-04-18T00:38:36.928Z,20.30
2023-04-18T00:41:31.368Z,20.30
2023-04-18T00:44:24.867Z,20.30
2023-04-18T00:47:18.290Z,20.30
2023-04-18T00:50:13.600Z,20.20
2023-04-18T00:53:08.405Z,20.20
2023-04-18T00:56:01.630Z,20.20
2023-04-18T00:58:54.895Z,20.20
2023-04-18T01:01:47.990Z,20.20
2023-04-18T01:04:43.216Z,20.20
2023-04-18T01:07:40.635Z,20.20
2023-04-18T01:10:36.612Z,20.20
2023-04-18T01:13:29.625Z,20.20
2023-04-18T01:16:22.926Z,20.20
2023-04-18T01:19:16.861Z,20.20
2023-04-18T01:22:11.334Z,20.20
2023-04-18T01:25:10.542Z,20.20
2023-04-18T01:28:04.526Z,20.20
2023-04-18T01:30:57.910Z,20.20
2023-04-18T01:33:51.160Z,20.10
2023-04-18T01:36:43.857Z,20.10
2023-04-18T01:39:36.855Z,20.20
2023-04-18T01:42:31.347Z,20.10
2023-04-18T01:45:25.717Z,20.10
2023-04-18T01:48:18.934Z,20.10
2023-04-18T01:51:11.947Z,20.10
2023-04-18T01:54:04.975Z,20.10
2023-04-18T01:56:57.777Z,20.10
2023-04-18T01:59:52.032Z,20.20
2023-04-18T02:02:44.983Z,20.20
2023-04-18T02:05:38.202Z,20.10
2023-04-18T02:08:33.039Z,20.10
2023-04-18T02:11:26.138Z,20.10
2023-04-18T02:14:18.897Z,20.10
2023-04-18T02:17:13.133Z,20.10
2023-04-18T02:20:08.205Z,20.10
2023-04-18T02:23:02.030Z,20.10
2023-04-18T02:25:55.205Z,20.10
2023-04-18T02:28:48.014Z,20.10
2023-04-18T02:31:42.387Z,20.10
2023-04-18T02:34:37.873Z,20.10
2023-04-18T02:37:30.655Z,20.10
2023-04-18T02:40:23.655Z,20.10
2023-04-18T02:43:16.737Z,20.10
2023-04-18T02:46:09.948Z,20.10
2023-04-18T02:49:03.552Z,20.10
2023-04-18T02:51:58.574Z,20.10
2023-04-18T02:54:51.895Z,20.10
2023-04-18T02:57:45.164Z,20.10
2023-04-18T03:00:38.173Z,20.10
2023-04-18T03:03:31.037Z,20.10
2023-04-18T03:06:23.854Z,20.10
2023-04-18T03:09:18.256Z,20.10
2023-04-18T03:12:10.706Z,20.00
2023-04-18T03:15:03.995Z,20.10
2023-04-18T03:17:57.101Z,20.00
2023-04-18T03:20:49.722Z,20.10
2023-04-18T03:23:43.054Z,20.00
2023-04-18T03:26:37.621Z,20.10
2023-04-18T03:29:31.053Z,20.00
2023-04-18T03:32:24.140Z,20.00
2023-04-18T03:35:17.078Z,20.00
2023-04-18T03:38:09.919Z,20.00
2023-04-18T03:41:02.842Z,20.00
2023-04-18T03:43:57.270Z,20.00
2023-04-18T03:46:50.044Z,20.00
2023-04-18T03:49:43.193Z,20.00
2023-04-18T03:52:36.210Z,20.00
2023-04-18T03:55:29.517Z,20.00
2023-04-18T03:58:23.616Z,20.00
2023-04-18T04:01:18.209Z,20.00
2023-04-18T04:04:14.038Z,20.00
2023-04-18T04:07:07.504Z,20.00
2023-04-18T04:10:00.580Z,20.00
2023-04-18T04:12:53.883Z,20.00
2023-04-18T04:15:46.773Z,20.00
2023-04-18T04:18:41.371Z,19.90
2023-04-18T04:21:34.795Z,20.00
2023-04-18T04:24:29.025Z,20.00
2023-04-18T04:27:22.654Z,19.90
2023-04-18T04:30:15.855Z,19.90
2023-04-18T04:33:09.270Z,19.90
2023-04-18T04:36:03.297Z,19.90
2023-04-18T04:38:56.404Z,19.90
2023-04-18T04:41:53.312Z,19.90
2023-04-18T04:44:46.023Z,19.90
2023-04-18T04:47:39.236Z,19.90
2023-04-18T04:50:36.605Z,19.90
2023-04-18T04:53:32.722Z,19.90
2023-04-18T04:56:26.291Z,19.90
2023-04-18T04:59:19.173Z,19.90
2023-04-18T05:02:12.193Z,19.90
2023-04-18T05:05:05.316Z,19.90
2023-04-18T05:07:57.760Z,19.90
2023-04-18T05:10:52.428Z,19.90
2023-04-18T05:13:46.231Z,19.90
2023-04-18T05:16:39.124Z,19.90
2023-04-18T05:19:31.929Z,19.90
2023-04-18T05:22:25.027Z,19.90
2023-04-18T05:25:17.947Z,19.90
2023-04-18T05:28:12.373Z,19.90
2023-04-18T05:31:06.361Z,19.90
2023-04-18T05:33:58.857Z,19.90
2023-04-18T05:36:52.635Z,19.90
2023-04-18T05:39:46.060Z,19.90
2023-04-18T05:42:39.398Z,19.90
2023-04-18T05:45:34.476Z,19.90
2023-04-18T05:48:28.364Z,19.90
2023-04-18T05:51:21.144Z,19.90
2023-04-18T05:54:14.631Z,19.90
2023-04-18T05:57:08.192Z,19.90
2023-04-18T06:00:01.131Z,19.90
2023-04-18T06:02:56.006Z,19.90
2023-04-18T06:05:49.027Z,19.90
2023-04-18T06:08:41.868Z,19.90
2023-04-18T06:11:35.698Z,19.90
2023-04-18T06:14:29.278Z,19.90
2023-04-18T06:17:22.964Z,19.90
2023-04-18T06:20:17.246Z,19.80
2023-04-18T06:23:10.102Z,19.90
2023-04-18T06:26:03.261Z,19.90
2023-04-18T06:28:56.347Z,19.90
2023-04-18T06:31:50.339Z,19.90
2023-04-18T06:34:44.707Z,19.80
2023-04-18T06:37:39.343Z,19.90
2023-04-18T06:40:31.979Z,19.80
2023-04-18T06:43:25.160Z,19.80
2023-04-18T06:46:18.082Z,19.80
2023-04-18T06:49:11.234Z,19.90
2023-04-18T06:52:04.590Z,19.80
2023-04-18T06:54:59.537Z,19.80
2023-04-18T06:57:52.992Z,19.90
2023-04-18T07:00:48.783Z,19.90
2023-04-18T07:03:42.271Z,19.90
2023-04-18T07:06:35.637Z,19.90
2023-04-18T07:09:28.910Z,19.90
2023-04-18T07:12:23.611Z,19.90
2023-04-18T07:15:17.325Z,19.90
2023-04-18T07:18:10.502Z,19.90
2023-04-18T07:21:03.964Z,19.90
2023-04-18T07:23:56.971Z,19.90
2023-04-18T07:26:50.049Z,19.90
2023-04-18T07:29:44.428Z,19.90
2023-04-18T07:32:36.916Z,19.90
2023-04-18T07:35:30.273Z,19.90
2023-04-18T07:38:23.410Z,19.90
2023-04-18T07:41:16.575Z,19.90
2023-04-18T07:44:10.087Z,19.90
2023-04-18T07:47:04.939Z,19.90
2023-04-18T07:49:58.609Z,19.90
2023-04-18T07:52:52.111Z,19.90
2023-04-18T07:55:45.399Z,19.90
2023-04-18T07:58:37.878Z,19.90
2023-04-18T08:01:31.635Z,19.90
2023-04-18T08:04:29.094Z,19.90
2023-04-18T08:07:23.019Z,19.90
2023-04-18T08:10:16.102Z,19.90
2023-04-18T08:13:09.484Z,19.90
2023-04-18T08:16:03.148Z,19.90
2023-04-18T08:18:56.348Z,19.90
2023-04-18T08:21:52.450Z,20.00
2023-04-18T08:25:00.987Z,20.00
2023-04-18T08:27:57.697Z,20.00
2023-04-18T08:30:52.005Z,20.00
2023-04-18T08:33:45.208Z,20.00
2023-04-18T08:36:38.140Z,20.00
2023-04-18T08:39:32.489Z,20.00
2023-04-18T08:42:25.651Z,20.00
2023-04-18T08:45:20.821Z,20.00
2023-04-18T08:48:15.438Z,20.00
2023-04-18T08:51:08.072Z,20.00
2023-04-18T08:54:04.296Z,20.00
2023-04-18T08:57:08.699Z,20.10
2023-04-18T09:00:02.572Z,20.10
2023-04-18T09:02:57.607Z,20.10
2023-04-18T09:06:08.284Z,20.10
2023-04-18T09:09:03.893Z,20.10
2023-04-18T09:12:09.505Z,20.20
2023-04-18T09:15:13.302Z,20.10
2023-04-18T09:18:10.824Z,20.20
2023-04-18T09:21:18.720Z,20.20
2023-04-18T09:24:23.802Z,20.20
2023-04-18T09:27:18.863Z,20.20
2023-04-18T09:30:29.777Z,20.20
2023-04-18T09:33:28.458Z,20.20
2023-04-18T09:36:23.842Z,20.20
2023-04-18T09:39:28.101Z,20.20
2023-04-18T09:42:23.569Z,20.20
2023-04-18T09:45:16.230Z,20.30
2023-04-18T09:48:09.607Z,20.40
2023-04-18T09:51:08.299Z,20.40
2023-04-18T09:54:01.621Z,20.50
2023-04-18T09:56:56.559Z,20.60
2023-04-18T09:59:56.188Z,20.70
2023-04-18T10:02:55.911Z,20.70
2023-04-18T10:05:50.010Z,20.70
2023-04-18T10:08:44.301Z,20.70
2023-04-18T10:11:37.934Z,20.80
2023-04-18T10:14:33.844Z,20.70
2023-04-18T10:17:29.781Z,20.70
2023-04-18T10:20:25.326Z,20.70
2023-04-18T10:23:39.815Z,20.70
2023-04-18T10:26:50.275Z,20.70
2023-04-18T10:29:51.148Z,20.70
2023-04-18T10:32:46.964Z,20.70
2023-04-18T10:35:57.630Z,20.70
2023-04-18T10:38:51.830Z,20.70
2023-04-18T10:41:50.912Z,20.60
2023-04-18T10:44:44.013Z,20.60
2023-04-18T10:47:37.367Z,20.60
2023-04-18T10:50:31.589Z,20.60
2023-04-18T10:53:24.486Z,20.70
2023-04-18T10:56:17.702Z,20.70
2023-04-18T10:59:13.485Z,20.70
2023-04-18T11:02:18.893Z,20.80
2023-04-18T11:05:12.544Z,20.80
2023-04-18T11:08:22.310Z,20.80
2023-04-18T11:11:15.602Z,20.80
2023-04-18T11:14:08.693Z,20.80
2023-04-18T11:17:16.917Z,20.80
2023-04-18T11:20:12.811Z,20.80
2023-04-18T11:23:17.078Z,20.80
2023-04-18T11:26:11.823Z,20.80
2023-04-18T11:29:07.455Z,20.80
2023-04-18T11:32:00.584Z,20.80
2023-04-18T11:34:54.528Z,20.80
2023-04-18T11:37:50.221Z,20.70
2023-04-18T11:40:50.541Z,20.70
2023-04-18T11:43:46.267Z,20.80
2023-04-18T11:46:40.039Z,20.80
2023-04-18T11:49:34.002Z,20.70
2023-04-18T11:52:29.152Z,20.70
2023-04-18T11:55:24.635Z,20.70
2023-04-18T11:58:20.301Z,20.70
2023-04-18T12:01:18.078Z,20.70
2023-04-18T12:04:11.782Z,20.70
2023-04-18T12:07:05.242Z,20.70
2023-04-18T12:09:58.559Z,20.70
2023-04-18T12:12:52.144Z,20.70
2023-04-18T12:15:47.800Z,20.70
2023-04-18T12:18:41.799Z,20.70
2023-04-18T12:21:35.312Z,20.80
2023-04-18T12:24:28.795Z,20.80
2023-04-18T12:27:22.207Z,20.70
2023-04-18T12:30:15.681Z,20.80
2023-04-18T12:33:09.851Z,20.80
2023-04-18T12:36:05.214Z,20.80
2023-04-18T12:38:58.805Z,20.80
2023-04-18T12:41:52.361Z,20.90
2023-04-18T12:44:47.900Z,20.80
2023-04-18T12:47:42.565Z,20.80
2023-04-18T12:50:36.910Z,20.80
2023-04-18T12:53:30.133Z,20.80
2023-04-18T12:56:23.686Z,20.80
2023-04-18T12:59:17.102Z,20.80
2023-04-18T13:02:10.396Z,20.80
2023-04-18T13:05:03.365Z,20.80
2023-04-18T13:10:53.196Z,20.70
2023-04-18T13:13:46.711Z,20.70
2023-04-18T13:16:40.576Z,20.70
2023-04-18T13:19:35.494Z,20.70
2023-04-18T13:22:30.776Z,20.70
2023-04-18T13:25:25.900Z,20.70
2023-04-18T13:28:19.507Z,20.70
2023-04-18T13:31:12.197Z,20.70
2023-04-18T13:34:05.390Z,20.60
2023-04-18T13:36:59.126Z,20.70
2023-04-18T13:39:52.194Z,20.70
2023-04-18T13:42:47.087Z,20.70
2023-04-18T13:45:40.709Z,20.70
2023-04-18T13:48:33.757Z,20.70
2023-04-18T13:51:27.418Z,20.80
2023-04-18T13:54:20.761Z,20.70
2023-04-18T13:57:14.502Z,20.70
2023-04-18T14:00:13.103Z,20.70
2023-04-18T14:03:06.803Z,20.70
2023-04-18T14:06:00.523Z,20.70
2023-04-18T14:08:53.425Z,20.70
2023-04-18T14:11:47.745Z,20.70
2023-04-18T14:14:40.365Z,20.70
2023-04-18T14:17:35.162Z,20.70
2023-04-18T14:20:34.109Z,20.60
2023-04-18T14:23:30.523Z,20.60
2023-04-18T14:26:23.566Z,20.60
2023-04-18T14:29:16.852Z,20.60
2023-04-18T14:32:10.569Z,20.60
2023-04-18T14:35:07.073Z,20.60
2023-04-18T14:38:00.280Z,20.60
2023-04-18T14:40:53.329Z,20.60
2023-04-18T14:43:46.426Z,20.60
2023-04-18T14:46:42.943Z,20.60
2023-04-18T14:49:36.389Z,20.60
2023-04-18T14:52:31.293Z,20.60
2023-04-18T14:55:24.745Z,20.60
2023-04-18T14:58:17.554Z,20.60
2023-04-18T15:01:10.739Z,20.60
2023-04-18T15:04:04.356Z,20.60
2023-04-18T15:06:57.217Z,20.60
2023-04-18T15:09:51.991Z,20.60
2023-04-18T15:12:48.450Z,20.60
2023-04-18T15:15:41.621Z,20.50
2023-04-18T15:18:34.570Z,20.60
2023-04-18T15:21:27.814Z,20.50
2023-04-18T15:24:20.541Z,20.60
2023-04-18T15:27:14.995Z,20.50
2023-04-18T15:30:10.755Z,20.50
2023-04-18T15:33:03.618Z,20.50
2023-04-18T15:35:56.592Z,20.50
2023-04-18T15:38:49.814Z,20.50
2023-04-18T15:41:42.992Z,20.50
2023-04-18T15:44:38.165Z,20.50
2023-04-18T15:47:33.681Z,20.50
2023-04-18T15:50:31.529Z,20.50
2023-04-18T15:53:26.822Z,20.50
2023-04-18T15:56:19.603Z,20.50
2023-04-18T15:59:13.149Z,20.50
2023-04-18T16:02:09.612Z,20.50
2023-04-18T16:05:02.351Z,20.40
2023-04-18T16:07:56.215Z,20.40
2023-04-18T16:10:49.605Z,20.40
2023-04-18T16:13:43.168Z,20.50
2023-04-18T16:16:36.662Z,20.50
2023-04-18T16:19:31.028Z,20.40
2023-04-18T16:22:24.396Z,20.40
2023-04-18T16:25:17.837Z,20.40
2023-04-18T16:28:10.704Z,20.40
2023-04-18T16:31:03.376Z,20.40
2023-04-18T16:33:56.683Z,20.40
2023-04-18T16:36:51.307Z,20.40
2023-04-18T16:39:44.576Z,20.40
2023-04-18T16:42:38.331Z,20.30
2023-04-18T16:45:31.668Z,20.40
2023-04-18T16:48:24.921Z,20.40
2023-04-18T16:51:17.738Z,20.40
2023-04-18T16:54:12.037Z,20.40
2023-04-18T16:57:05.507Z,20.40
2023-04-18T17:00:02.025Z,20.30
2023-04-18T17:02:55.859Z,20.30
2023-04-18T17:05:49.663Z,20.30
2023-04-18T17:08:42.578Z,20.30
2023-04-18T17:11:39.603Z,20.30
2023-04-18T17:14:33.060Z,20.30
2023-04-18T17:17:26.509Z,20.30
2023-04-18T17:20:19.777Z,20.30
2023-04-18T17:23:12.737Z,20.30
2023-04-18T17:26:05.543Z,20.30
2023-04-18T17:29:00.633Z,20.30
2023-04-18T17:31:53.897Z,20.30
2023-04-18T17:34:47.816Z,20.30
2023-04-18T17:37:41.007Z,20.30
2023-04-18T17:40:35.287Z,20.30
2023-04-18T17:43:29.101Z,20.30
2023-04-18T17:46:24.133Z,20.30
2023-04-18T17:49:17.738Z,20.30
2023-04-18T17:52:10.740Z,20.30
2023-04-18T17:55:04.022Z,20.30
2023-04-18T17:57:57.484Z,20.20
2023-04-18T18:00:52.368Z,20.30
2023-04-18T18:03:48.223Z,20.30
2023-04-18T18:06:42.138Z,20.20
2023-04-18T18:09:35.710Z,20.30
2023-04-18T18:12:28.556Z,20.20
2023-04-18T18:15:22.045Z,20.20
2023-04-18T18:18:15.547Z,20.20
2023-04-18T18:21:11.420Z,20.20
2023-04-18T18:24:04.962Z,20.20
2023-04-18T18:26:58.038Z,20.20
2023-04-18T18:29:52.673Z,20.20
2023-04-18T18:32:45.740Z,20.20
2023-04-18T18:35:40.253Z,20.20
2023-04-18T18:38:35.518Z,20.20
2023-04-18T18:41:28.597Z,20.20
2023-04-18T18:44:21.514Z,20.20
2023-04-18T18:47:14.835Z,20.20
2023-04-18T18:50:08.475Z,20.20
2023-04-18T18:53:02.367Z,20.20
2023-04-18T18:55:56.902Z,20.20
2023-04-18T18:58:50.040Z,20.20
2023-04-18T19:01:44.122Z,20.20
2023-04-18T19:04:37.845Z,20.20
2023-04-18T19:07:31.227Z,20.20
2023-04-18T19:10:24.876Z,20.20
2023-04-18T19:13:22.496Z,20.20
2023-04-18T19:16:15.636Z,20.20
2023-04-18T19:19:08.856Z,20.20
2023-04-18T19:22:01.608Z,20.20
2023-04-18T19:24:54.721Z,20.20
2023-04-18T19:27:47.834Z,20.20
2023-04-18T19:30:42.956Z,20.20
2023-04-18T19:33:35.780Z,20.20
2023-04-18T19:36:28.734Z,20.20
2023-04-18T19:39:21.763Z,20.20
2023-04-18T19:42:14.984Z,20.20
2023-04-18T19:45:08.765Z,20.20
2023-04-18T19:48:03.906Z,20.20
2023-04-18T19:50:57.593Z,20.20
2023-04-18T19:53:50.835Z,20.20
2023-04-18T19:56:43.852Z,20.20
2023-04-18T19:59:37.142Z,20.20
2023-04-18T20:02:30.898Z,20.20
2023-04-18T20:05:24.974Z,20.20
2023-04-18T20:08:17.686Z,20.20
2023-04-18T20:11:11.882Z,20.20
2023-04-18T20:14:04.521Z,20.20
2023-04-18T20:16:58.018Z,20.20
2023-04-18T20:19:51.878Z,20.20
2023-04-18T20:22:47.424Z,20.20
2023-04-18T20:25:41.022Z,20.20
2023-04-18T20:28:35.146Z,20.20
2023-04-18T20:31:28.693Z,20.20
2023-04-18T20:34:21.683Z,20.20
2023-04-18T20:37:18.571Z,20.20
2023-04-18T20:40:13.670Z,20.20
2023-04-18T20:43:07.933Z,20.20
2023-04-18T20:46:00.908Z,20.20
2023-04-18T20:48:54.289Z,20.20
2023-04-18T20:51:47.667Z,20.20
2023-04-18T20:54:41.454Z,20.20
2023-04-18T20:57:36.980Z,20.20
2023-04-18T21:00:29.637Z,20.20
2023-04-18T21:03:22.914Z,20.20
2023-04-18T21:06:15.877Z,20.20
2023-04-18T21:09:09.161Z,20.20
2023-04-18T21:12:03.002Z,20.20
2023-04-18T21:14:57.304Z,20.20
2023-04-18T21:17:51.702Z,20.20
2023-04-18T21:20:44.712Z,20.20
2023-04-18T21:23:42.975Z,20.20
2023-04-18T21:26:35.986Z,20.20
2023-04-18T21:29:28.777Z,20.20
2023-04-18T21:32:23.182Z,20.20
2023-04-18T21:35:19.414Z,20.20
2023-04-18T21:38:14.023Z,20.20
2023-04-18T21:41:07.136Z,20.20
2023-04-18T21:44:00.291Z,20.20
2023-04-18T21:46:54.069Z,20.20
2023-04-18T21:49:48.094Z,20.20
2023-04-18T21:52:40.763Z,20.20
2023-04-18T21:55:33.994Z,20.20
2023-04-18T21:58:26.883Z,20.20
2023-04-18T22:01:20.266Z,20.20
2023-04-18T22:04:14.820Z,20.20
2023-04-18T22:07:11.358Z,20.20
2023-04-18T22:10:05.679Z,20.20
2023-04-18T22:13:00.192Z,20.20
2023-04-18T22:15:53.833Z,20.20
2023-04-18T22:18:47.029Z,20.20
2023-04-18T22:21:39.698Z,20.20
2023-04-18T22:24:34.320Z,20.20
2023-04-18T22:27:27.953Z,20.20
2023-04-18T22:30:21.641Z,20.20
2023-04-18T22:33:14.910Z,20.20
2023-04-18T22:36:07.802Z,20.20
2023-04-18T22:39:00.755Z,20.10
2023-04-18T22:41:55.277Z,20.20
2023-04-18T22:44:48.752Z,20.20
2023-04-18T22:47:41.965Z,20.20
2023-04-18T22:50:37.689Z,20.10
2023-04-18T22:53:30.941Z,20.20
2023-04-18T22:56:24.139Z,20.20
2023-04-18T22:59:18.345Z,20.10
2023-04-18T23:02:12.583Z,20.10
2023-04-18T23:05:07.380Z,20.10
2023-04-18T23:08:00.758Z,20.10
2023-04-18T23:10:53.874Z,20.10
2023-04-18T23:13:46.776Z,20.10
2023-04-18T23:16:43.271Z,20.10
2023-04-18T23:19:37.122Z,20.10
2023-04-18T23:22:30.573Z,20.10
2023-04-18T23:25:23.930Z,20.10
2023-04-18T23:28:17.210Z,20.10
2023-04-18T23:31:10.730Z,20.10
2023-04-18T23:34:05.409Z,20.10
2023-04-18T23:36:59.083Z,20.20
2023-04-18T23:39:52.003Z,20.10
2023-04-18T23:42:44.964Z,20.10
2023-04-18T23:45:38.128Z,20.10
2023-04-18T23:48:30.989Z,20.10
2023-04-18T23:51:26.212Z,20.10
2023-04-18T23:54:18.645Z,20.10
2023-04-18T23:57:12.127Z,20.10
